Time;durP1;ratioP1;P1;durP2;ratioP2;P2;SDS_P1;SDS_P2;PMS_P1;PMS_P2;Temp;Humidity;BMP_temperature;BMP_pressure;BME280_temperature;BME280_humidity;BME280_pressure;Samples;Min_cycle;Max_cycle;Signal;HPM_P1;HPM_P2
2023/07/24 08:34:57;;;;;;;;;1.00;1.00;;;;;24.44;43.03;100085.34;5015284;28;45732;-42
2023/07/24 08:37:22;;;;;;;;;1.00;1.00;;;;;24.41;43.11;100083.81;5015696;28;56874;-45
2023/07/24 08:39:47;;;;;;;;;1.33;1.00;;;;;24.45;42.91;100092.34;5015359;28;60033;-42
2023/07/24 08:42:14;;;;;;;;;1.25;1.25;;;;;24.43;42.89;100086.31;5015749;28;45386;-42
2023/07/24 08:44:39;;;;;;;;;1.75;1.75;;;;;24.44;42.55;100083.56;5015702;28;45724;-42
2023/07/24 08:47:10;;;;;;;;;1.25;1.25;;;;;24.45;42.46;100092.34;5015993;28;45452;-42
2023/07/24 08:49:37;;;;;;;;;2.50;1.00;;;;;24.43;42.60;100084.53;5016130;28;45227;-46
2023/07/24 08:52:04;;;;;;;;;1.00;1.00;;;;;24.45;42.93;100087.88;4997859;28;48204;-46
2023/07/24 08:54:30;;;;;;;;;1.00;1.00;;;;;24.45;42.79;100092.34;5015548;28;45379;-43
2023/07/24 08:56:55;;;;;;;;;2.25;1.75;;;;;24.46;42.07;100094.00;5016085;28;45365;-43
2023/07/24 08:59:21;;;;;;;;;2.25;1.00;;;;;24.46;42.08;100094.88;5015528;28;46173;-43
2023/07/24 09:01:46;;;;;;;;;1.25;1.25;;;;;24.46;42.40;100094.88;5015354;28;51097;-44
2023/07/24 09:04:11;;;;;;;;;2.25;1.00;;;;;24.46;41.96;100094.88;5015559;28;45333;-45
2023/07/24 09:06:37;;;;;;;;;2.00;2.00;;;;;24.47;41.68;100090.41;5015647;28;45304;-44
2023/07/24 09:09:03;;;;;;;;;2.00;2.00;;;;;24.46;42.03;100097.53;5015845;28;45531;-40
2023/07/24 09:11:28;;;;;;;;;1.25;1.25;;;;;24.45;41.33;100097.63;5015603;28;46842;-39
2023/07/24 09:13:53;;;;;;;;;1.00;1.00;;;;;24.47;41.55;100096.56;5014961;28;58460;-42
2023/07/24 09:16:24;;;;;;;;;1.00;1.00;;;;;24.48;41.79;100100.03;5015409;28;45404;-41
2023/07/24 09:18:51;;;;;;;;;2.00;2.00;;;;;24.48;41.28;100097.38;5015842;28;45509;-43
2023/07/24 09:21:27;;;;;;;;;1.25;1.25;;;;;24.48;41.46;100102.69;5015235;28;46199;-45
2023/07/24 09:23:52;;;;;;;;;2.00;2.00;;;;;24.48;41.03;100094.72;5015332;28;45664;-45
2023/07/24 09:26:17;;;;;;;;;1.00;1.00;;;;;24.48;41.04;100092.91;5015602;28;45599;-42
2023/07/24 09:28:52;;;;;;;;;1.00;1.00;;;;;24.48;40.88;100097.38;5018560;28;46870;-44
2023/07/24 09:31:17;;;;;;;;;4.00;1.50;;;;;24.47;40.91;100095.69;5018578;28;46013;-42
2023/07/24 09:33:46;;;;;;;;;2.25;2.00;;;;;24.49;41.35;100107.00;5018574;28;45380;-43
2023/07/24 09:36:12;;;;;;;;;0.00;0.00;;;;;24.49;40.67;100104.34;5018741;28;45375;-42
2023/07/24 09:38:39;;;;;;;;;1.00;1.00;;;;;24.49;41.35;100105.19;5018656;28;45576;-42
2023/07/24 09:41:05;;;;;;;;;2.25;2.25;;;;;24.49;40.71;100101.72;5018284;28;48600;-46
2023/07/24 09:43:31;;;;;;;;;1.25;1.25;;;;;24.49;40.55;100096.41;5017789;28;45421;-42
2023/07/24 09:45:57;;;;;;;;;1.00;1.00;;;;;24.48;40.94;100100.03;5018954;28;45251;-42
2023/07/24 09:48:25;;;;;;;;;2.25;1.75;;;;;24.49;40.52;100101.72;5018694;28;45494;-42
2023/07/24 09:50:56;;;;;;;;;2.25;1.25;;;;;24.47;41.19;100091.25;5018261;28;46223;-42
2023/07/24 09:53:31;;;;;;;;;1.00;1.00;;;;;24.48;40.66;100100.03;5000433;28;45743;-41
2023/07/24 09:56:01;;;;;;;;;1.25;1.25;;;;;24.48;41.18;100103.50;5018600;28;45291;-40
2023/07/24 09:58:28;;;;;;;;;2.50;2.00;;;;;24.50;40.71;100108.69;5018782;28;45447;-42
2023/07/24 10:00:54;;;;;;;;;0.75;0.75;;;;;24.47;41.13;100101.84;5017958;28;45699;-42
2023/07/24 10:03:21;;;;;;;;;1.50;1.25;;;;;24.49;40.62;100104.34;5018218;28;45355;-44
2023/07/24 10:05:47;;;;;;;;;2.25;1.00;;;;;24.49;40.73;100128.19;5000299;28;45490;-42
2023/07/24 10:08:17;;;;;;;;;2.00;2.00;;;;;24.49;41.28;100118.44;5018394;28;45266;-41
2023/07/24 10:10:43;;;;;;;;;3.50;2.00;;;;;24.49;40.80;100113.13;5017912;28;46273;-45
2023/07/24 10:13:10;;;;;;;;;0.75;0.75;;;;;24.51;41.18;100115.66;5017956;28;45337;-43
2023/07/24 10:15:37;;;;;;;;;1.25;1.00;;;;;24.51;40.57;100113.03;5018076;28;45206;-41
2023/07/24 10:18:05;;;;;;;;;2.00;1.00;;;;;24.51;40.46;100110.38;5018066;28;45353;-41
2023/07/24 10:20:48;;;;;;;;;1.00;1.00;;;;;24.49;40.56;100110.47;5018097;28;46224;-40
2023/07/24 10:23:17;;;;;;;;;1.00;1.00;;;;;24.49;40.64;100105.19;5017805;28;45409;-42
2023/07/24 10:25:45;;;;;;;;;0.00;0.00;;;;;24.51;40.93;100102.44;5017994;28;45299;-42
2023/07/24 10:28:12;;;;;;;;;1.00;1.00;;;;;24.52;41.08;100109.41;5017966;28;45384;-42
2023/07/24 10:30:41;;;;;;;;;2.00;2.00;;;;;24.51;40.66;100105.91;5017440;28;45944;-44
2023/07/24 10:33:20;;;;;;;;;2.00;0.00;;;;;24.52;40.96;100107.59;5017773;28;45440;-46
2023/07/24 10:35:49;;;;;;;;;1.75;1.00;;;;;24.53;41.00;100111.06;4999820;28;45343;-40
2023/07/24 10:38:16;;;;;;;;;2.00;2.00;;;;;24.55;40.67;100098.53;4999725;28;45540;-43
2023/07/24 10:40:43;;;;;;;;;2.00;1.00;;;;;24.57;40.86;100101.91;5017388;28;45636;-43
2023/07/24 10:43:11;;;;;;;;;3.50;2.00;;;;;24.60;40.82;100108.75;5017408;28;45751;-45
2023/07/24 10:45:48;;;;;;;;;1.25;1.00;;;;;24.59;40.93;100113.22;4999698;28;45250;-43
2023/07/24 10:48:14;;;;;;;;;2.00;2.00;;;;;24.63;41.28;100104.03;5017844;28;45314;-43
2023/07/24 10:50:42;;;;;;;;;1.00;1.00;;;;;24.64;41.16;100111.00;5017316;28;45485;-41
2023/07/24 10:53:09;;;;;;;;;1.00;1.00;;;;;24.64;41.20;100108.34;5017087;28;45832;-43
2023/07/24 10:55:35;;;;;;;;;3.50;2.50;;;;;24.63;40.73;100117.28;5017514;28;45516;-42
2023/07/24 10:58:00;;;;;;;;;2.25;2.25;;;;;24.63;40.79;100117.28;5017814;28;45321;-45
2023/07/24 11:00:27;;;;;;;;;2.25;1.00;;;;;24.65;40.76;100112.69;5017103;28;46052;-42
2023/07/24 11:02:54;;;;;;;;;1.50;1.50;;;;;24.67;41.29;100116.03;4999368;28;45687;-41
2023/07/24 11:05:21;;;;;;;;;2.00;1.25;;;;;24.70;40.94;100117.63;5017210;28;45351;-42
2023/07/24 11:07:46;;;;;;;;;1.00;1.00;;;;;24.72;41.39;100118.34;5017517;28;45441;-42
2023/07/24 11:10:16;;;;;;;;;5.00;3.00;;;;;24.77;40.64;100120.59;5016952;28;45745;-42
2023/07/24 11:12:41;;;;;;;;;2.00;1.75;;;;;24.77;41.02;100123.25;5017081;28;45411;-40
2023/07/24 11:15:07;;;;;;;;;1.25;1.25;;;;;24.77;40.55;100124.09;5016841;28;47129;-42
2023/07/24 11:17:40;;;;;;;;;1.00;1.00;;;;;24.77;40.50;100112.63;4999885;28;45487;-44
2023/07/24 11:20:13;;;;;;;;;2.00;1.00;;;;;24.78;40.53;100119.63;5000351;28;46357;-43
2023/07/24 11:22:41;;;;;;;;;1.25;1.25;;;;;24.79;40.78;100116.00;4999113;28;45838;-45
2023/07/24 11:25:07;;;;;;;;;2.50;1.00;;;;;24.79;40.97;100113.34;5017165;28;45466;-46
2023/07/24 11:27:32;;;;;;;;;4.25;3.00;;;;;24.78;40.55;100124.94;5017237;28;45478;-40
2023/07/24 11:29:58;;;;;;;;;4.50;3.00;;;;;24.80;41.07;100117.69;5016742;28;45479;-42
2023/07/24 11:32:23;;;;;;;;;6.00;2.00;;;;;24.90;40.99;100125.72;5016754;28;45309;-42
2023/07/24 11:34:51;;;;;;;;;2.00;2.00;;;;;24.97;40.47;100122.38;5016794;28;45212;-41
2023/07/24 11:37:18;;;;;;;;;3.00;2.00;;;;;25.00;40.42;100129.25;5016884;28;45439;-42
2023/07/24 11:39:54;;;;;;;;;3.25;2.25;;;;;25.00;40.59;100127.44;5016469;28;45440;-44
2023/07/24 11:42:19;;;;;;;;;1.50;1.50;;;;;25.00;40.38;100122.13;5016637;28;45726;-42
2023/07/24 11:44:44;;;;;;;;;5.00;2.25;;;;;25.00;40.25;100122.13;4998782;28;45847;-42
2023/07/24 11:47:10;;;;;;;;;3.50;1.75;;;;;25.01;40.55;100121.16;5016845;28;45418;-44
2023/07/24 11:49:35;;;;;;;;;2.00;2.00;;;;;25.03;40.04;100117.53;4997926;28;54488;-43
2023/07/24 11:52:05;;;;;;;;;2.00;1.00;;;;;25.01;40.17;100115.84;5016420;28;45459;-43
2023/07/24 11:54:33;;;;;;;;;3.00;1.25;;;;;25.00;40.23;100116.00;5016227;28;45302;-40
2023/07/24 11:56:59;;;;;;;;;8.75;3.00;;;;;24.98;39.97;100125.88;5016580;28;45643;-42
2023/07/24 11:59:24;;;;;;;;;1.00;1.00;;;;;24.95;40.05;100121.69;5016330;28;46452;-43
2023/07/24 12:01:50;;;;;;;;;1.00;1.00;;;;;24.92;39.74;100116.66;5016312;28;45470;-42
2023/07/24 12:04:16;;;;;;;;;1.75;1.75;;;;;24.89;40.13;100111.59;4998652;28;45492;-42
2023/07/24 12:06:42;;;;;;;;;6.75;2.00;;;;;24.89;40.11;100124.84;5016485;28;45278;-43
2023/07/24 12:09:08;;;;;;;;;2.00;2.00;;;;;24.87;40.35;100124.13;5016385;28;45507;-40
2023/07/24 12:11:38;;;;;;;;;2.00;2.00;;;;;24.81;40.43;100122.84;5016162;28;45444;-43
2023/07/24 12:14:04;;;;;;;;;1.50;1.50;;;;;24.79;39.97;100116.00;5016366;28;45337;-41
2023/07/24 12:16:30;;;;;;;;;2.00;2.00;;;;;24.78;40.01;100124.94;5016293;28;45303;-40
2023/07/24 12:18:55;;;;;;;;;1.50;1.50;;;;;24.75;40.42;100122.56;5015912;28;46303;-44
2023/07/24 12:21:21;;;;;;;;;3.50;2.50;;;;;24.72;40.29;100120.16;5016282;28;45637;-41
2023/07/24 12:23:46;;;;;;;;;4.75;2.75;;;;;24.72;40.09;100128.94;4998491;28;45300;-42
2023/07/24 12:26:11;;;;;;;;;3.00;3.00;;;;;24.73;40.19;100130.63;5015895;28;45653;-43
2023/07/24 12:28:37;;;;;;;;;2.00;1.75;;;;;24.72;40.44;100122.81;5016300;28;45286;-40
2023/07/24 12:31:03;;;;;;;;;2.00;2.00;;;;;24.74;40.87;100123.53;5015948;28;45335;-39
2023/07/24 12:33:28;;;;;;;;;3.75;2.00;;;;;24.73;40.51;100117.38;5015090;28;45272;-42
2023/07/24 12:35:54;;;;;;;;;2.50;2.00;;;;;24.73;40.67;100122.66;5016090;28;45320;-43
2023/07/24 12:38:19;;;;;;;;;2.00;2.00;;;;;24.75;40.73;100125.22;5015763;28;46977;-42
2023/07/24 12:40:44;;;;;;;;;3.00;2.00;;;;;24.74;40.90;100121.69;5015530;28;50247;-43
2023/07/24 12:43:10;;;;;;;;;2.00;2.00;;;;;24.77;40.48;100123.25;5016047;28;47200;-42
2023/07/24 12:45:35;;;;;;;;;2.25;1.25;;;;;24.76;40.39;100118.91;5015932;28;45210;-41
2023/07/24 12:48:00;;;;;;;;;2.50;2.00;;;;;24.76;40.72;100118.91;5015527;28;45489;-39
2023/07/24 12:50:26;;;;;;;;;1.75;1.75;;;;;24.79;40.71;100121.31;5015309;28;56942;-42
2023/07/24 12:52:51;;;;;;;;;2.75;2.00;;;;;24.79;40.96;100110.72;5015789;28;45508;-39
2023/07/24 12:55:17;;;;;;;;;2.00;2.00;;;;;24.78;40.71;100123.13;5015752;28;45397;-42
2023/07/24 12:57:42;;;;;;;;;1.00;1.00;;;;;24.78;40.54;100119.63;5016042;28;46100;-42
2023/07/24 13:00:08;;;;;;;;;2.00;2.00;;;;;24.78;40.85;100124.94;5016001;28;45332;-44
2023/07/24 13:02:34;;;;;;;;;2.00;1.00;;;;;24.78;40.09;100122.28;5019246;28;45357;-44
2023/07/24 13:05:00;;;;;;;;;1.00;1.00;;;;;24.79;40.47;100131.91;5019130;28;45513;-42
2023/07/24 13:07:25;;;;;;;;;2.00;1.75;;;;;24.80;40.69;100136.25;5018912;28;45444;-44
2023/07/24 13:09:50;;;;;;;;;2.75;2.00;;;;;24.80;40.75;100136.25;5001013;28;45416;-43
2023/07/24 13:12:16;;;;;;;;;1.50;1.50;;;;;24.79;40.07;100137.22;5019097;28;45341;-44
2023/07/24 13:14:42;;;;;;;;;2.50;2.00;;;;;24.78;40.84;100138.19;5019455;28;45464;-41
2023/07/24 13:17:07;;;;;;;;;2.75;2.75;;;;;24.79;40.78;100140.72;5018723;28;46182;-44
2023/07/24 13:19:33;;;;;;;;;2.25;2.00;;;;;24.76;40.86;100142.75;5017952;28;45234;-42
2023/07/24 13:21:58;;;;;;;;;4.00;1.00;;;;;24.77;40.96;100142.66;5018988;28;45281;-45
2023/07/24 13:24:24;;;;;;;;;1.00;1.00;;;;;24.78;41.80;100151.44;5001354;28;45671;-42
2023/07/24 13:26:49;;;;;;;;;3.50;2.00;;;;;24.78;41.38;100140.81;5018795;28;46026;-42
2023/07/24 13:29:14;;;;;;;;;1.75;1.00;;;;;24.77;42.03;100141.78;5018194;28;60962;-42
2023/07/24 13:31:40;;;;;;;;;2.00;2.00;;;;;24.77;41.78;100155.03;5019103;28;45344;-41
2023/07/24 13:34:06;;;;;;;;;1.25;1.25;;;;;24.75;42.08;100141.09;5018744;28;45599;-40
2023/07/24 13:36:32;;;;;;;;;1.00;1.00;;;;;24.77;42.06;100144.44;5018391;28;45403;-35
2023/07/24 13:38:57;;;;;;;;;1.25;1.25;;;;;24.72;42.60;100130.75;5018424;28;45516;-36
2023/07/24 13:41:23;;;;;;;;;1.00;1.00;;;;;24.76;42.31;100134.81;5018273;28;49242;-37
2023/07/24 13:43:48;;;;;;;;;2.50;2.50;;;;;24.75;42.91;100130.50;5018779;28;45547;-34
2023/07/24 13:46:13;;;;;;;;;1.00;1.00;;;;;24.74;42.72;100132.31;5018447;28;45440;-37
2023/07/24 13:48:39;;;;;;;;;2.50;2.25;;;;;24.76;42.69;100126.84;5018287;28;45364;-36
2023/07/24 13:51:04;;;;;;;;;2.50;2.00;;;;;24.76;42.55;100126.84;5000632;28;45849;-34
2023/07/24 13:53:30;;;;;;;;;3.00;2.25;;;;;24.76;42.78;100127.72;5018392;28;45452;-35
2023/07/24 13:55:55;;;;;;;;;2.75;2.00;;;;;24.76;42.94;100137.47;5018200;28;46163;-35
2023/07/24 13:58:20;;;;;;;;;1.75;1.75;;;;;24.75;42.74;100130.50;5018197;28;45413;-37
2023/07/24 14:00:46;;;;;;;;;3.00;3.00;;;;;24.77;43.17;100133.84;5018285;28;54162;-37
2023/07/24 14:03:11;;;;;;;;;4.75;2.00;;;;;24.76;43.33;100127.72;5018992;28;45254;-37
2023/07/24 14:05:36;;;;;;;;;2.00;2.00;;;;;24.76;42.99;100125.06;5017607;28;55208;-38
2023/07/24 14:08:02;;;;;;;;;3.00;1.00;;;;;24.76;42.82;100117.13;5017633;28;55628;-38
2023/07/24 14:10:28;;;;;;;;;2.50;2.00;;;;;24.78;43.55;100120.47;5018126;28;45236;-37
2023/07/24 14:12:53;;;;;;;;;2.00;2.00;;;;;24.77;42.81;100112.63;5017717;28;45170;-42
2023/07/24 14:15:18;;;;;;;;;1.25;1.25;;;;;24.78;43.46;100103.72;5017845;28;46153;-37
2023/07/24 14:17:44;;;;;;;;;2.50;2.50;;;;;24.80;43.64;100112.38;5018099;28;45301;-37
2023/07/24 14:20:09;;;;;;;;;3.00;1.50;;;;;24.80;43.14;100110.59;5017767;28;48055;-47
2023/07/24 14:22:34;;;;;;;;;3.00;1.00;;;;;24.80;43.38;100099.13;5000296;28;45303;-41
2023/07/24 14:25:00;;;;;;;;;4.00;2.75;;;;;24.81;42.91;100095.53;5016964;28;66257;-35
2023/07/24 14:27:25;;;;;;;;;3.25;1.75;;;;;24.81;42.91;100092.88;5000019;28;45436;-38
2023/07/24 14:29:50;;;;;;;;;3.50;2.00;;;;;24.82;43.43;100078.66;5017455;28;58052;-36
2023/07/24 14:32:16;;;;;;;;;1.75;1.75;;;;;24.81;43.14;100079.63;5018185;28;45494;-40
2023/07/24 14:34:42;;;;;;;;;2.75;2.00;;;;;24.81;43.06;100075.16;5017556;28;45539;-39
2023/07/24 14:37:07;;;;;;;;;2.50;2.50;;;;;24.81;43.26;100082.28;5017501;28;45801;-39
2023/07/24 14:39:33;;;;;;;;;1.00;1.00;;;;;24.81;42.82;100076.97;5017745;28;45395;-37
2023/07/24 14:41:58;;;;;;;;;1.00;1.00;;;;;24.81;43.44;100083.09;5017808;28;45548;-38
2023/07/24 14:44:25;;;;;;;;;2.00;2.00;;;;;24.82;43.26;100082.13;5016690;28;63843;-40
2023/07/24 14:46:50;;;;;;;;;1.00;1.00;;;;;24.83;42.97;100080.34;5017414;28;45467;-36
2023/07/24 14:49:15;;;;;;;;;2.75;2.75;;;;;24.83;43.34;100080.34;5017879;28;45459;-46
2023/07/24 14:51:41;;;;;;;;;3.00;2.00;;;;;24.84;43.66;100082.84;5017630;28;45575;-37
2023/07/24 14:54:06;;;;;;;;;1.50;1.50;;;;;24.82;42.87;100076.00;5017157;28;46222;-40
2023/07/24 14:56:32;;;;;;;;;1.25;1.25;;;;;24.84;43.56;100077.53;5017225;28;45194;-37
2023/07/24 14:58:57;;;;;;;;;1.75;1.25;;;;;24.84;43.12;100072.25;5017382;28;45337;-35
2023/07/24 15:01:23;;;;;;;;;2.00;2.00;;;;;24.84;43.25;100066.94;4999510;28;45607;-38
2023/07/24 15:03:48;;;;;;;;;1.00;1.00;;;;;24.85;43.28;100073.09;5017462;28;46823;-39
2023/07/24 15:06:14;;;;;;;;;3.25;2.00;;;;;24.84;43.52;100061.63;5016924;28;45312;-34
2023/07/24 15:08:39;;;;;;;;;2.75;1.00;;;;;24.85;43.64;100058.03;5017205;28;45168;-36
2023/07/24 15:11:04;;;;;;;;;2.50;1.00;;;;;24.86;43.23;100066.78;5017262;28;45303;-34
2023/07/24 15:13:30;;;;;;;;;1.25;1.25;;;;;24.86;43.07;100058.84;5016838;28;46203;-36
2023/07/24 15:15:55;;;;;;;;;1.75;1.75;;;;;24.86;43.69;100058.84;4998698;28;45371;-35
2023/07/24 15:18:21;;;;;;;;;1.00;1.00;;;;;24.85;42.89;100054.53;5017514;28;45324;-34
2023/07/24 15:20:46;;;;;;;;;1.00;1.00;;;;;24.86;43.16;100064.16;4999731;28;45460;-40
2023/07/24 15:23:13;;;;;;;;;1.00;1.00;;;;;24.86;43.30;100061.50;5016928;28;46490;-39
2023/07/24 15:25:38;;;;;;;;;1.00;1.00;;;;;24.87;43.58;100055.22;5015661;28;45312;-43
2023/07/24 15:28:04;;;;;;;;;2.50;1.25;;;;;24.86;43.42;100058.84;5016929;28;45313;-41
2023/07/24 15:30:30;;;;;;;;;3.00;2.00;;;;;24.84;43.28;100055.50;5016939;28;45388;-43
2023/07/24 15:32:55;;;;;;;;;1.00;1.00;;;;;24.86;43.29;100056.19;4999043;28;46300;-39
2023/07/24 15:35:20;;;;;;;;;3.25;1.00;;;;;24.86;43.35;100069.44;5016386;28;60605;-41
2023/07/24 15:37:46;;;;;;;;;0.75;0.75;;;;;24.88;43.45;100066.69;5016902;28;45317;-37
2023/07/24 15:40:12;;;;;;;;;0.00;0.00;;;;;24.86;43.24;100077.41;5017068;28;45973;-36
2023/07/24 15:42:37;;;;;;;;;1.00;1.00;;;;;24.85;43.14;100071.28;4998851;28;47323;-37
2023/07/24 15:45:03;;;;;;;;;1.50;0.25;;;;;24.87;43.38;100092.34;5016254;28;52457;-37
2023/07/24 15:47:29;;;;;;;;;0.00;0.00;;;;;24.86;43.97;100088.00;4998414;28;45438;-38
2023/07/24 15:49:54;;;;;;;;;1.25;1.00;;;;;24.86;44.22;100095.94;4999021;28;45564;-35
2023/07/24 15:52:20;;;;;;;;;0.00;0.00;;;;;24.84;44.01;100084.66;5016853;28;46082;-36
2023/07/24 15:54:45;;;;;;;;;0.25;0.25;;;;;24.84;44.19;100082.84;5016468;28;45333;-35
2023/07/24 15:57:10;;;;;;;;;0.25;0.00;;;;;24.84;44.94;100082.84;4998895;28;45402;-37
2023/07/24 15:59:35;;;;;;;;;1.00;1.00;;;;;24.84;44.99;100087.31;5016598;28;45566;-33
2023/07/24 16:02:02;;;;;;;;;1.00;1.00;;;;;24.84;44.89;100085.50;5016204;28;46117;-41
2023/07/24 16:04:27;;;;;;;;;1.00;1.00;;;;;24.81;44.90;100084.91;4998527;28;45683;-35
2023/07/24 16:06:53;;;;;;;;;0.50;0.50;;;;;24.83;45.33;100090.94;5016863;28;45375;-43
2023/07/24 16:09:18;;;;;;;;;0.75;0.75;;;;;24.79;45.59;100082.41;5016533;28;45593;-37
2023/07/24 16:11:44;;;;;;;;;2.00;1.75;;;;;24.82;45.30;100083.94;4998405;28;48066;-39
2023/07/24 16:14:09;;;;;;;;;0.75;0.75;;;;;24.82;45.81;100081.31;5016320;28;45552;-39
2023/07/24 16:16:34;;;;;;;;;1.00;1.00;;;;;24.81;45.55;100076.97;5015664;28;54873;-41
2023/07/24 16:19:17;;;;;;;;;1.00;1.00;;;;;24.81;45.84;100072.50;4998629;28;45331;-45
2023/07/24 16:21:44;;;;;;;;;2.00;2.00;;;;;24.81;45.91;100074.31;5016039;28;47251;-38
2023/07/24 16:24:10;;;;;;;;;1.00;1.00;;;;;24.81;46.55;100072.50;5016324;28;45420;-34
2023/07/24 16:26:36;;;;;;;;;1.75;1.75;;;;;24.81;46.81;100082.28;4998316;28;45325;-38
2023/07/24 16:29:01;;;;;;;;;1.00;1.00;;;;;24.81;46.56;100071.66;5016333;28;45301;-39
2023/07/24 16:31:28;;;;;;;;;1.00;1.00;;;;;24.80;46.63;100065.53;5015780;28;45807;-37
2023/07/24 16:33:53;;;;;;;;;0.75;0.75;;;;;24.80;46.81;100072.63;5015754;28;45664;-35
2023/07/24 16:36:19;;;;;;;;;1.00;1.00;;;;;24.81;47.08;100076.97;5017773;28;45246;-36
2023/07/24 16:38:44;;;;;;;;;1.00;1.00;;;;;24.81;47.33;100071.66;5019734;28;45439;-38
2023/07/24 16:41:09;;;;;;;;;1.00;1.00;;;;;24.81;46.94;100076.97;5019396;28;45372;-36
2023/07/24 16:43:34;;;;;;;;;2.50;1.00;;;;;24.81;47.75;100076.97;5018892;28;55929;-35
2023/07/24 16:46:00;;;;;;;;;1.25;1.25;;;;;24.81;47.29;100071.66;5018895;28;55481;-47
2023/07/24 16:48:25;;;;;;;;;2.25;1.75;;;;;24.80;47.93;100067.34;5019625;28;45463;-34
2023/07/24 16:50:51;;;;;;;;;2.00;2.00;;;;;24.77;47.94;100076.41;5019124;28;45324;-39
2023/07/24 16:53:16;;;;;;;;;1.75;1.25;;;;;24.79;47.27;100078.91;5019300;28;46044;-36
2023/07/24 16:55:41;;;;;;;;;2.00;2.00;;;;;24.79;48.31;100074.47;5019332;28;45183;-37
2023/07/24 16:58:06;;;;;;;;;1.00;1.00;;;;;24.78;47.65;100079.88;5019381;28;45788;-38
2023/07/24 17:00:32;;;;;;;;;1.50;1.00;;;;;24.78;48.46;100093.13;5018907;28;46282;-35
2023/07/24 17:02:57;;;;;;;;;1.00;1.00;;;;;24.77;48.06;100092.28;5001124;28;45413;-36
2023/07/24 17:05:23;;;;;;;;;1.25;1.25;;;;;24.78;48.23;100104.59;5019327;28;45406;-43
2023/07/24 17:07:48;;;;;;;;;2.25;1.75;;;;;24.77;48.29;100096.75;5019412;28;45538;-39
2023/07/24 17:10:14;;;;;;;;;1.00;1.00;;;;;24.76;48.24;100101.22;5018903;28;45342;-34
2023/07/24 17:12:40;;;;;;;;;1.50;1.50;;;;;24.77;48.83;100102.03;5001211;28;45830;-38
2023/07/24 17:15:06;;;;;;;;;3.00;2.00;;;;;24.77;48.55;100110.00;5019067;28;45354;-37
2023/07/24 17:17:31;;;;;;;;;1.25;1.25;;;;;24.73;48.62;100108.59;5019189;28;45368;-38
2023/07/24 17:19:57;;;;;;;;;1.25;1.25;;;;;24.75;48.64;100114.59;5001328;28;46012;-35
2023/07/24 17:22:22;;;;;;;;;2.00;2.00;;;;;24.75;48.38;100114.59;5018659;28;50977;-39
2023/07/24 17:24:47;;;;;;;;;1.00;1.00;;;;;24.74;48.26;100104.97;5018557;28;48249;-37
2023/07/24 17:27:12;;;;;;;;;1.00;1.00;;;;;24.76;48.46;100108.31;5018980;28;45373;-35
2023/07/24 17:29:38;;;;;;;;;1.00;1.00;;;;;24.77;48.23;100108.19;5018581;28;45488;-37
2023/07/24 17:32:06;;;;;;;;;1.00;1.00;;;;;24.78;48.39;100109.03;5018586;28;45304;-38
2023/07/24 17:34:32;;;;;;;;;3.00;1.25;;;;;24.77;48.03;100107.34;5018880;28;45315;-36
2023/07/24 17:36:57;;;;;;;;;1.00;1.00;;;;;24.77;48.37;100102.91;5019174;28;45361;-44
2023/07/24 17:39:22;;;;;;;;;1.00;1.00;;;;;24.77;48.72;100096.75;5018592;28;45298;-34
2023/07/24 17:41:48;;;;;;;;;1.75;1.75;;;;;24.77;48.65;100102.03;5018486;28;45356;-37
2023/07/24 17:44:13;;;;;;;;;2.75;2.75;;;;;24.70;48.16;100099.06;5018611;28;45418;-38
2023/07/24 17:46:39;;;;;;;;;2.25;2.25;;;;;24.77;48.72;100099.38;5018233;28;45312;-38
2023/07/24 17:49:04;;;;;;;;;2.50;2.00;;;;;24.76;48.92;100098.56;5017373;28;55666;-39
2023/07/24 17:51:30;;;;;;;;;1.00;1.00;;;;;24.77;48.85;100102.03;5017954;28;62612;-37
2023/07/24 17:53:56;;;;;;;;;4.00;3.00;;;;;24.77;48.71;100105.56;5018589;28;45346;-41
2023/07/24 17:56:22;;;;;;;;;2.00;2.00;;;;;24.77;48.44;100104.69;5018450;28;45329;-40
2023/07/24 17:58:47;;;;;;;;;3.00;2.00;;;;;24.76;48.39;100103.00;5018243;28;45382;-41
2023/07/24 18:01:12;;;;;;;;;5.00;2.25;;;;;24.76;48.91;100105.66;5017861;28;53607;-38
2023/07/24 18:03:38;;;;;;;;;3.50;2.00;;;;;24.76;49.09;100103.00;5018327;28;45327;-42
2023/07/24 18:06:03;;;;;;;;;1.00;1.00;;;;;24.77;48.51;100102.03;5018206;28;45651;-42
2023/07/24 18:08:29;;;;;;;;;1.25;1.25;;;;;24.76;48.58;100101.22;5018266;28;46640;-41
2023/07/24 18:10:55;;;;;;;;;3.00;2.00;;;;;24.77;48.75;100096.75;5018189;28;45252;-44
2023/07/24 18:13:21;;;;;;;;;1.00;1.00;;;;;24.76;48.65;100087.09;5018283;28;45401;-35
2023/07/24 18:15:47;;;;;;;;;1.25;1.25;;;;;24.76;48.40;100087.97;5018139;28;45465;-43
2023/07/24 18:18:12;;;;;;;;;2.00;2.00;;;;;24.76;49.01;100092.41;5017916;28;45438;-43
2023/07/24 18:20:37;;;;;;;;;2.75;2.00;;;;;24.77;48.91;100100.25;5017857;28;45391;-41
2023/07/24 18:23:03;;;;;;;;;2.50;2.50;;;;;24.76;48.49;100092.41;5000224;28;45259;-40
2023/07/24 18:25:28;;;;;;;;;3.75;2.25;;;;;24.78;48.74;100086.03;5018281;28;45748;-36
2023/07/24 18:27:54;;;;;;;;;1.50;1.50;;;;;24.77;49.10;100083.50;5017658;28;47737;-35
2023/07/24 18:30:23;;;;;;;;;1.50;1.50;;;;;24.77;48.69;100086.13;5017415;28;51661;-40
2023/07/24 18:32:49;;;;;;;;;1.75;1.50;;;;;24.75;49.12;100080.97;5000117;28;45411;-36
2023/07/24 18:35:14;;;;;;;;;1.75;1.75;;;;;24.74;48.51;100079.31;5017989;28;45313;-33
2023/07/24 18:37:40;;;;;;;;;3.00;3.00;;;;;24.76;48.49;100079.16;5017562;28;45771;-38
2023/07/24 18:40:06;;;;;;;;;1.75;1.75;;;;;24.75;48.44;100083.63;5017534;28;45306;-42
2023/07/24 18:42:31;;;;;;;;;1.50;1.00;;;;;24.74;49.03;100089.06;5000123;28;45498;-36
2023/07/24 18:44:56;;;;;;;;;1.00;1.00;;;;;24.74;48.87;100086.44;5017686;28;45603;-36
2023/07/24 18:47:21;;;;;;;;;2.75;2.00;;;;;24.74;48.73;100084.59;5017223;28;51499;-34
2023/07/24 18:49:47;;;;;;;;;3.00;2.00;;;;;24.74;48.47;100086.44;5017401;28;45473;-34
2023/07/24 18:52:12;;;;;;;;;2.00;2.00;;;;;24.73;48.49;100079.44;5017482;28;45419;-38
2023/07/24 18:54:39;;;;;;;;;3.00;2.00;;;;;24.72;48.39;100075.13;5017364;28;45541;-36
2023/07/24 18:57:04;;;;;;;;;2.25;2.00;;;;;24.72;48.34;100077.75;5017010;28;47159;-38
2023/07/24 18:59:30;;;;;;;;;2.00;2.00;;;;;24.70;48.67;100070.78;5017276;28;45369;-37
2023/07/24 19:01:55;;;;;;;;;1.00;1.00;;;;;24.70;48.76;100070.78;5017106;28;45481;-37
2023/07/24 19:04:20;;;;;;;;;2.00;1.00;;;;;24.70;49.00;100076.06;5017241;28;45496;-35
2023/07/24 19:06:47;;;;;;;;;1.75;1.75;;;;;24.69;48.74;100073.56;5016818;28;47564;-37
2023/07/24 19:09:13;;;;;;;;;2.50;2.00;;;;;24.68;48.89;100075.38;4999220;28;45195;-39
2023/07/24 19:11:38;;;;;;;;;1.00;1.00;;;;;24.70;48.36;100075.22;5016976;28;45227;-45
2023/07/24 19:14:03;;;;;;;;;2.00;1.00;;;;;24.69;48.46;100074.41;5017609;28;45295;-36
2023/07/24 19:16:29;;;;;;;;;2.00;1.00;;;;;24.69;48.96;100074.41;5016671;28;52483;-37
2023/07/24 19:18:54;;;;;;;;;1.00;1.00;;;;;24.69;48.47;100084.16;5016512;28;52178;-39
2023/07/24 19:21:19;;;;;;;;;2.00;2.00;;;;;24.69;48.74;100082.34;5016577;28;51341;-35
2023/07/24 19:23:45;;;;;;;;;2.00;1.00;;;;;24.69;48.76;100082.34;5017342;28;45801;-36
2023/07/24 19:26:11;;;;;;;;;1.50;1.50;;;;;24.69;48.33;100090.28;5016425;28;45843;-38
2023/07/24 19:28:36;;;;;;;;;2.00;2.00;;;;;24.70;48.67;100091.97;5016940;28;45206;-39
2023/07/24 19:31:02;;;;;;;;;2.00;2.00;;;;;24.69;48.25;100090.28;5017210;28;45564;-35
2023/07/24 19:33:27;;;;;;;;;3.00;0.75;;;;;24.70;48.29;100102.56;5016629;28;46516;-40
2023/07/24 19:36:00;;;;;;;;;1.75;1.00;;;;;24.69;48.92;100100.91;5016405;28;46470;-36
2023/07/24 19:38:26;;;;;;;;;2.00;2.00;;;;;24.70;48.40;100102.56;5015853;28;45319;-36
2023/07/24 19:40:58;;;;;;;;;2.00;2.00;;;;;24.70;48.85;100112.31;5016857;28;45889;-39
2023/07/24 19:43:24;;;;;;;;;3.75;1.50;;;;;24.69;48.38;100106.19;5016813;28;45370;-38
2023/07/24 19:45:49;;;;;;;;;2.25;2.00;;;;;24.70;48.99;100114.97;5016201;28;45821;-43
2023/07/24 19:48:14;;;;;;;;;1.25;1.25;;;;;24.69;48.73;100116.78;5016614;28;45191;-40
2023/07/24 19:50:49;;;;;;;;;2.75;2.75;;;;;24.70;48.78;100123.78;5016445;28;45242;-40
2023/07/24 19:53:14;;;;;;;;;2.00;2.00;;;;;24.70;48.28;100129.06;5016269;28;45476;-38